createdAt,value
2019-03-24T00:04:41.532Z,6.10
2019-03-24T00:07:23.966Z,6.10
2019-03-24T00:10:11.278Z,6.00
2019-03-24T00:12:56.741Z,6.00
2019-03-24T00:15:39.914Z,6.00
2019-03-24T00:18:23.187Z,6.20
2019-03-24T00:21:09.548Z,6.30
2019-03-24T00:23:52.876Z,6.30
2019-03-24T00:26:35.136Z,6.20
2019-03-24T00:29:20.739Z,6.10
2019-03-24T00:32:06.475Z,6.10
2019-03-24T00:34:50.449Z,5.90
2019-03-24T00:37:34.687Z,5.90
2019-03-24T00:40:19.292Z,5.90
2019-03-24T00:43:17.413Z,5.80
2019-03-24T00:46:22.075Z,5.80
2019-03-24T00:49:06.179Z,5.80
2019-03-24T00:52:09.140Z,5.70
2019-03-24T00:54:57.026Z,5.60
2019-03-24T00:57:42.362Z,5.50
2019-03-24T01:00:27.428Z,5.50
2019-03-24T01:03:09.142Z,5.50
2019-03-24T01:05:54.037Z,5.40
2019-03-24T01:08:40.053Z,5.40
2019-03-24T01:11:24.250Z,5.30
2019-03-24T01:14:13.783Z,5.20
2019-03-24T01:17:29.635Z,5.30
2019-03-24T01:19:59.596Z,5.30
2019-03-24T01:22:41.430Z,5.50
2019-03-24T01:25:25.807Z,5.60
2019-03-24T01:28:13.074Z,5.60
2019-03-24T01:30:58.633Z,5.70
2019-03-24T01:33:43.670Z,5.80
2019-03-24T01:36:33.294Z,5.80
2019-03-24T01:39:17.647Z,5.80
2019-03-24T01:42:00.546Z,5.90
2019-03-24T01:44:42.533Z,5.90
2019-03-24T01:47:28.068Z,6.00
2019-03-24T01:53:06.858Z,6.10
2019-03-24T01:55:49.015Z,6.20
2019-03-24T01:58:31.186Z,6.20
2019-03-24T02:01:13.193Z,6.20
2019-03-24T02:06:44.675Z,6.30
2019-03-24T02:09:30.099Z,6.30
2019-03-24T02:14:58.231Z,6.30
2019-03-24T02:17:42.987Z,6.30
2019-03-24T02:20:26.803Z,6.40
2019-03-24T02:23:11.819Z,6.50
2019-03-24T02:25:54.675Z,6.50
2019-03-24T02:28:43.000Z,6.50
2019-03-24T02:31:27.905Z,6.50
2019-03-24T02:34:13.993Z,6.50
2019-03-24T02:36:58.649Z,6.50
2019-03-24T02:39:43.750Z,6.60
2019-03-24T02:42:28.483Z,6.60
2019-03-24T02:45:12.205Z,6.60
2019-03-24T02:47:58.515Z,6.60
2019-03-24T02:50:43.531Z,6.60
2019-03-24T02:53:35.056Z,6.70
2019-03-24T02:56:27.813Z,6.70
2019-03-24T02:59:33.250Z,6.80
2019-03-24T03:02:13.298Z,6.80
2019-03-24T03:05:06.000Z,6.90
2019-03-24T03:11:29.156Z,6.90
2019-03-24T03:14:08.864Z,7.00
2019-03-24T03:20:12.010Z,6.90
2019-03-24T03:22:57.720Z,6.90
2019-03-24T03:25:44.184Z,6.90
2019-03-24T03:28:35.433Z,6.90
2019-03-24T03:31:24.928Z,6.90
2019-03-24T03:34:29.434Z,6.90
2019-03-24T03:37:06.031Z,6.80
2019-03-24T03:43:04.624Z,6.80
2019-03-24T03:45:51.097Z,6.90
2019-03-24T03:48:41.779Z,6.90
2019-03-24T03:51:48.365Z,7.00
2019-03-24T03:54:31.218Z,6.90
2019-03-24T03:57:19.775Z,6.90
2019-03-24T04:00:08.284Z,6.90
2019-03-24T04:02:58.594Z,7.00
2019-03-24T04:05:41.141Z,7.10
2019-03-24T04:08:27.781Z,7.00
2019-03-24T04:11:09.494Z,7.00
2019-03-24T04:13:56.048Z,7.00
2019-03-24T04:16:40.962Z,6.90
2019-03-24T04:19:26.386Z,6.90
2019-03-24T04:22:10.927Z,6.90
2019-03-24T04:25:01.322Z,7.00
2019-03-24T04:27:50.160Z,7.00
2019-03-24T04:30:33.239Z,7.00
2019-03-24T04:33:15.011Z,7.00
2019-03-24T04:36:03.001Z,7.00
2019-03-24T04:39:05.381Z,6.90
2019-03-24T04:41:42.391Z,7.20
2019-03-24T04:44:31.595Z,7.20
2019-03-24T04:47:18.883Z,7.20
2019-03-24T04:50:00.933Z,7.30
2019-03-24T04:52:43.733Z,7.30
2019-03-24T04:55:28.562Z,7.30
2019-03-24T04:58:10.531Z,7.30
2019-03-24T05:04:09.317Z,7.30
2019-03-24T05:06:46.790Z,7.40
2019-03-24T05:09:32.668Z,7.50
2019-03-24T05:12:35.178Z,7.50
2019-03-24T05:15:36.262Z,7.60
2019-03-24T05:18:11.500Z,7.60
2019-03-24T05:20:56.776Z,7.50
2019-03-24T05:23:43.350Z,7.50
2019-03-24T05:26:38.698Z,7.50
2019-03-24T05:29:31.098Z,7.60
2019-03-24T05:32:11.138Z,7.60
2019-03-24T05:34:54.062Z,7.60
2019-03-24T05:40:23.492Z,7.70
2019-03-24T05:43:15.290Z,7.70
2019-03-24T05:45:59.161Z,7.80
2019-03-24T05:48:43.332Z,7.70
2019-03-24T05:51:28.882Z,7.60
2019-03-24T05:54:16.418Z,7.60
2019-03-24T05:57:01.536Z,7.60
2019-03-24T05:59:46.175Z,7.50
2019-03-24T06:02:33.911Z,7.60
2019-03-24T06:05:21.521Z,7.60
2019-03-24T06:11:01.488Z,7.60
2019-03-24T06:13:47.257Z,7.50
2019-03-24T06:16:29.436Z,7.50
2019-03-24T06:19:12.894Z,7.50
2019-03-24T06:21:56.113Z,7.50
2019-03-24T06:24:38.946Z,7.50
2019-03-24T06:27:21.001Z,7.50
2019-03-24T06:30:03.178Z,7.50
2019-03-24T06:32:46.645Z,7.50
2019-03-24T06:35:37.804Z,7.60
2019-03-24T06:38:20.366Z,7.70
2019-03-24T06:41:03.052Z,7.90
2019-03-24T06:44:11.438Z,8.00
2019-03-24T06:46:47.070Z,8.00
2019-03-24T06:49:28.647Z,7.90
2019-03-24T06:52:15.617Z,7.90
2019-03-24T06:54:59.714Z,8.00
2019-03-24T07:03:20.220Z,8.30
2019-03-24T07:06:08.695Z,8.20
2019-03-24T07:08:59.633Z,8.10
2019-03-24T07:11:43.035Z,8.10
2019-03-24T07:14:27.986Z,8.10
2019-03-24T07:17:09.564Z,8.10
2019-03-24T07:20:12.891Z,8.10
2019-03-24T07:22:49.760Z,8.10
2019-03-24T07:25:39.102Z,8.10
2019-03-24T07:28:22.022Z,8.20
2019-03-24T07:31:06.166Z,8.20
2019-03-24T07:33:57.880Z,8.20
2019-03-24T07:36:40.759Z,8.20
2019-03-24T07:39:24.500Z,8.20
2019-03-24T07:42:21.269Z,8.20
2019-03-24T07:45:26.411Z,8.30
2019-03-24T07:48:19.018Z,8.30
2019-03-24T07:57:02.858Z,8.50
2019-03-24T07:59:47.778Z,8.60
2019-03-24T08:05:46.927Z,8.70
2019-03-24T08:11:32.333Z,8.60
2019-03-24T08:14:19.046Z,8.70
2019-03-24T08:17:02.990Z,8.80
2019-03-24T08:19:45.325Z,8.80
2019-03-24T08:22:29.275Z,8.80
2019-03-24T08:25:15.532Z,8.90
2019-03-24T08:28:31.745Z,8.90
2019-03-24T08:31:10.107Z,8.90
2019-03-24T08:33:56.959Z,8.90
2019-03-24T08:36:37.126Z,9.00
2019-03-24T08:39:21.264Z,9.10
2019-03-24T08:42:04.102Z,9.10
2019-03-24T08:44:48.916Z,9.20
2019-03-24T08:47:31.246Z,9.20
2019-03-24T08:50:17.158Z,9.30
2019-03-24T08:53:06.309Z,9.40
2019-03-24T08:55:56.269Z,9.40
2019-03-24T08:58:41.927Z,9.40
2019-03-24T09:01:26.542Z,9.40
2019-03-24T09:04:14.544Z,9.50
2019-03-24T09:07:01.468Z,9.50
2019-03-24T09:09:47.763Z,9.50
2019-03-24T09:12:31.244Z,9.60
2019-03-24T09:15:15.763Z,9.60
2019-03-24T09:18:05.152Z,9.60
2019-03-24T09:20:55.789Z,9.80
2019-03-24T09:23:42.581Z,9.80
2019-03-24T09:26:31.116Z,9.90
2019-03-24T09:29:18.642Z,9.90
2019-03-24T09:32:15.629Z,9.90
2019-03-24T09:34:52.721Z,9.90
2019-03-24T09:38:01.223Z,9.90
2019-03-24T09:40:49.370Z,9.90
2019-03-24T09:43:29.227Z,9.80
2019-03-24T09:46:12.374Z,9.80
2019-03-24T09:49:03.015Z,9.80
2019-03-24T09:54:47.127Z,10.00
2019-03-24T09:57:44.909Z,10.00
2019-03-24T10:00:21.252Z,9.90
2019-03-24T10:03:03.688Z,9.90
2019-03-24T10:05:45.876Z,9.90
2019-03-24T10:08:27.668Z,10.00
2019-03-24T10:11:09.653Z,9.90
2019-03-24T10:13:51.659Z,9.90
2019-03-24T10:16:22.924Z,9.80
2019-03-24T10:19:14.275Z,9.90
2019-03-24T10:21:50.317Z,9.80
2019-03-24T10:24:39.874Z,9.70
2019-03-24T10:27:22.106Z,9.70
2019-03-24T10:30:04.027Z,9.70
2019-03-24T10:32:46.081Z,9.70
2019-03-24T10:35:28.104Z,9.60
2019-03-24T10:38:10.289Z,9.60
2019-03-24T10:40:41.046Z,9.60
2019-03-24T10:43:22.689Z,9.60
2019-03-24T10:46:04.192Z,9.50
2019-03-24T10:48:46.187Z,9.40
2019-03-24T10:51:28.279Z,9.40
2019-03-24T10:54:10.316Z,9.30
2019-03-24T10:56:41.137Z,9.20
2019-03-24T10:59:23.503Z,9.30
2019-03-24T11:02:05.431Z,9.30
2019-03-24T11:04:47.531Z,9.30
2019-03-24T11:07:29.935Z,9.40
2019-03-24T11:10:12.204Z,9.40
2019-03-24T11:12:54.397Z,9.50
2019-03-24T11:15:36.425Z,9.60
2019-03-24T11:18:18.346Z,9.70
2019-03-24T11:21:00.622Z,9.80
2019-03-24T11:23:42.724Z,10.00
2019-03-24T11:26:24.756Z,10.30
2019-03-24T11:29:07.061Z,10.50
2019-03-24T11:31:37.982Z,10.70
2019-03-24T11:34:19.969Z,10.80
2019-03-24T11:37:01.871Z,10.90
2019-03-24T11:39:43.741Z,10.90
2019-03-24T11:42:25.774Z,11.10
2019-03-24T11:45:08.373Z,11.30
2019-03-24T11:47:50.503Z,11.50
2019-03-24T11:50:32.758Z,11.60
2019-03-24T11:53:15.198Z,11.70
2019-03-24T11:55:57.204Z,11.80
2019-03-24T11:58:39.398Z,12.10
2019-03-24T12:01:21.499Z,12.40
2019-03-24T12:04:03.397Z,12.50
2019-03-24T12:06:45.381Z,12.60
2019-03-24T12:09:16.283Z,12.60
2019-03-24T12:11:47.166Z,12.70
2019-03-24T12:14:36.706Z,12.90
2019-03-24T12:17:18.160Z,13.00
2019-03-24T12:20:01.940Z,13.10
2019-03-24T12:22:43.667Z,13.20
2019-03-24T12:25:25.645Z,13.40
2019-03-24T12:28:07.798Z,13.40
2019-03-24T12:30:49.906Z,13.50
2019-03-24T12:33:31.884Z,13.40
2019-03-24T12:36:13.930Z,13.30
2019-03-24T12:38:56.053Z,13.50
2019-03-24T12:41:38.422Z,13.70
2019-03-24T12:44:22.582Z,13.90
2019-03-24T12:47:04.835Z,13.90
2019-03-24T12:49:46.939Z,13.80
2019-03-24T12:52:28.895Z,13.60
2019-03-24T12:55:10.865Z,13.40
2019-03-24T12:57:44.077Z,13.30
2019-03-24T13:00:52.582Z,13.30
2019-03-24T13:03:25.471Z,13.30
2019-03-24T13:05:56.248Z,13.30
2019-03-24T13:08:38.260Z,13.40
2019-03-24T13:11:20.260Z,13.50
2019-03-24T13:14:02.643Z,13.40
2019-03-24T13:16:33.408Z,13.40
2019-03-24T13:19:15.015Z,13.30
2019-03-24T13:21:57.340Z,13.20
2019-03-24T13:24:39.566Z,13.20
2019-03-24T13:27:22.093Z,13.30
2019-03-24T13:30:04.239Z,13.10
2019-03-24T13:32:46.347Z,13.00
2019-03-24T13:35:28.295Z,13.00
2019-03-24T13:38:10.653Z,13.00
2019-03-24T13:40:53.186Z,13.00
2019-03-24T13:43:35.253Z,12.90
2019-03-24T13:46:17.392Z,12.90
2019-03-24T13:48:59.977Z,12.70
2019-03-24T13:51:41.814Z,12.70
2019-03-24T13:54:24.145Z,12.60
2019-03-24T13:57:06.733Z,12.50
2019-03-24T13:59:49.129Z,12.30
2019-03-24T14:02:31.063Z,12.30
2019-03-24T14:05:02.358Z,12.30
2019-03-24T14:07:33.454Z,12.40
2019-03-24T14:10:15.772Z,12.40
2019-03-24T14:12:57.896Z,12.50
2019-03-24T14:15:28.808Z,12.50
2019-03-24T14:18:18.385Z,12.50
2019-03-24T14:21:00.055Z,12.50
2019-03-24T14:23:43.391Z,12.60
2019-03-24T14:26:25.518Z,12.60
2019-03-24T14:28:56.374Z,12.60
2019-03-24T14:31:38.657Z,12.70
2019-03-24T14:34:20.781Z,12.70
2019-03-24T14:37:03.038Z,12.70
2019-03-24T14:39:45.122Z,12.70
2019-03-24T14:42:27.346Z,12.70
2019-03-24T14:45:09.508Z,12.60
2019-03-24T14:47:52.505Z,12.50
2019-03-24T14:50:34.763Z,12.40
2019-03-24T14:53:18.478Z,12.40
2019-03-24T14:56:02.001Z,12.40
2019-03-24T14:58:45.183Z,12.40
2019-03-24T15:01:29.843Z,12.40
2019-03-24T15:04:11.642Z,12.40
2019-03-24T15:06:53.908Z,12.30
2019-03-24T15:09:35.802Z,12.30
2019-03-24T15:12:17.709Z,12.20
2019-03-24T15:15:00.003Z,12.20
2019-03-24T15:17:42.158Z,12.20
2019-03-24T15:20:24.002Z,12.10
2019-03-24T15:23:08.596Z,12.10
2019-03-24T15:25:55.785Z,12.00
2019-03-24T15:28:37.441Z,12.00
2019-03-24T15:31:19.534Z,12.00
2019-03-24T15:33:50.355Z,11.80
2019-03-24T15:36:39.950Z,11.80
2019-03-24T15:39:24.398Z,11.80
2019-03-24T15:42:09.461Z,11.80
2019-03-24T15:44:52.387Z,11.70
2019-03-24T15:47:36.941Z,11.60
2019-03-24T15:50:22.302Z,11.60
2019-03-24T15:52:53.265Z,11.50
2019-03-24T15:55:40.919Z,11.50
2019-03-24T15:58:22.795Z,11.50
2019-03-24T16:01:04.944Z,11.40
2019-03-24T16:03:46.495Z,11.40
2019-03-24T16:09:11.906Z,11.20
2019-03-24T16:11:54.221Z,11.20
2019-03-24T16:14:35.920Z,11.20
2019-03-24T16:17:18.495Z,11.10
2019-03-24T16:20:02.251Z,11.00
2019-03-24T16:22:43.709Z,11.00
2019-03-24T16:25:25.580Z,11.00
2019-03-24T16:28:08.038Z,11.00
2019-03-24T16:30:50.097Z,10.90
2019-03-24T16:33:35.067Z,10.90
2019-03-24T16:36:17.981Z,10.90
2019-03-24T16:39:03.898Z,10.80
2019-03-24T16:41:44.900Z,10.80
2019-03-24T16:44:28.210Z,10.80
2019-03-24T16:47:10.753Z,10.80
2019-03-24T16:49:54.062Z,10.70
2019-03-24T16:52:42.014Z,10.70
2019-03-24T16:55:24.547Z,10.70
2019-03-24T16:58:06.992Z,10.60
2019-03-24T17:00:49.790Z,10.50
2019-03-24T17:03:35.800Z,10.50
2019-03-24T17:06:20.197Z,10.40
2019-03-24T17:09:07.870Z,10.40
2019-03-24T17:11:50.089Z,10.30
2019-03-24T17:14:32.189Z,10.20
2019-03-24T17:17:14.949Z,10.20
2019-03-24T17:20:02.503Z,10.20
2019-03-24T17:22:46.264Z,10.10
2019-03-24T17:25:28.581Z,10.10
2019-03-24T17:31:29.193Z,10.00
2019-03-24T17:34:12.373Z,9.90
2019-03-24T17:36:55.359Z,9.90
2019-03-24T17:39:39.395Z,9.80
2019-03-24T17:42:21.252Z,9.70
2019-03-24T17:45:05.148Z,9.60
2019-03-24T17:47:49.511Z,9.50
2019-03-24T17:50:34.540Z,9.50
2019-03-24T17:53:17.163Z,9.40
2019-03-24T17:56:00.204Z,9.30
2019-03-24T17:58:46.837Z,9.20
2019-03-24T18:01:29.107Z,9.20
2019-03-24T18:04:11.471Z,9.10
2019-03-24T18:06:53.591Z,9.00
2019-03-24T18:09:35.309Z,8.90
2019-03-24T18:12:17.095Z,8.90
2019-03-24T18:14:59.125Z,8.80
2019-03-24T18:17:42.132Z,8.80
2019-03-24T18:20:24.357Z,8.70
2019-03-24T18:23:13.069Z,8.60
2019-03-24T18:25:56.102Z,8.50
2019-03-24T18:28:38.163Z,8.50
2019-03-24T18:31:21.974Z,8.40
2019-03-24T18:34:05.013Z,8.40
2019-03-24T18:39:42.533Z,8.30
2019-03-24T18:42:24.778Z,8.20
2019-03-24T18:45:07.404Z,8.20
2019-03-24T18:47:51.455Z,8.10
2019-03-24T18:50:32.751Z,8.10
2019-03-24T18:53:17.380Z,8.10
2019-03-24T18:56:01.418Z,8.00
2019-03-24T19:01:33.461Z,8.00
2019-03-24T19:04:16.960Z,7.80
2019-03-24T19:07:06.695Z,7.80
2019-03-24T19:09:49.355Z,7.80
2019-03-24T19:12:36.859Z,7.80
2019-03-24T19:15:21.244Z,7.80
2019-03-24T19:18:05.241Z,7.70
2019-03-24T19:20:47.319Z,7.70
2019-03-24T19:23:29.752Z,7.70
2019-03-24T19:26:12.003Z,7.60
2019-03-24T19:28:53.561Z,7.70
2019-03-24T19:31:39.304Z,7.60
2019-03-24T19:34:21.765Z,7.60
2019-03-24T19:37:04.829Z,7.60
2019-03-24T19:39:46.862Z,7.50
2019-03-24T19:42:28.958Z,7.50
2019-03-24T19:45:14.892Z,7.50
2019-03-24T19:48:00.942Z,7.50
2019-03-24T19:50:42.494Z,7.50
2019-03-24T19:53:24.455Z,7.50
2019-03-24T19:56:07.363Z,7.40
2019-03-24T19:58:49.603Z,7.30
2019-03-24T20:01:34.825Z,7.30
2019-03-24T20:04:16.820Z,7.20
2019-03-24T20:06:59.060Z,7.10
2019-03-24T20:09:30.150Z,7.10
2019-03-24T20:12:12.515Z,7.00
2019-03-24T20:14:56.692Z,7.00
2019-03-24T20:20:33.076Z,6.90
2019-03-24T20:23:17.156Z,7.00
2019-03-24T20:26:00.552Z,7.00
2019-03-24T20:28:48.146Z,6.90
2019-03-24T20:31:29.688Z,6.90
2019-03-24T20:34:11.611Z,6.90
2019-03-24T20:36:53.365Z,6.80
2019-03-24T20:42:43.933Z,6.80
2019-03-24T20:45:28.516Z,6.80
2019-03-24T20:48:16.802Z,6.80
2019-03-24T20:51:03.159Z,6.80
2019-03-24T20:56:33.339Z,6.80
2019-03-24T20:59:16.078Z,6.70
2019-03-24T21:02:00.062Z,6.70
2019-03-24T21:04:42.809Z,6.70
2019-03-24T21:07:29.405Z,6.60
2019-03-24T21:10:11.731Z,6.60
2019-03-24T21:12:59.538Z,6.60
2019-03-24T21:15:33.063Z,6.60
2019-03-24T21:18:04.151Z,6.50
2019-03-24T21:20:54.688Z,6.50
2019-03-24T21:23:38.755Z,6.40
2019-03-24T21:26:22.491Z,6.40
2019-03-24T21:29:04.003Z,6.40
2019-03-24T21:31:46.851Z,6.40
2019-03-24T21:34:17.870Z,6.40
2019-03-24T21:37:07.590Z,6.40
2019-03-24T21:39:49.889Z,6.40
2019-03-24T21:42:32.028Z,6.30
2019-03-24T21:45:14.008Z,6.30
2019-03-24T21:47:55.984Z,6.20
2019-03-24T21:50:38.381Z,6.30
2019-03-24T21:53:20.280Z,6.20
2019-03-24T21:56:03.305Z,6.20
2019-03-24T21:58:46.438Z,6.10
2019-03-24T22:01:29.566Z,6.10
2019-03-24T22:04:15.017Z,6.10
2019-03-24T22:06:56.585Z,6.00
2019-03-24T22:09:42.866Z,6.00
2019-03-24T22:12:25.539Z,6.00
2019-03-24T22:15:07.121Z,6.00
2019-03-24T22:17:49.332Z,5.90
2019-03-24T22:20:31.922Z,5.90
2019-03-24T22:23:16.992Z,5.90
2019-03-24T22:26:00.050Z,5.80
2019-03-24T22:28:43.214Z,5.80
2019-03-24T22:31:25.839Z,5.80
2019-03-24T22:34:07.874Z,5.80
2019-03-24T22:36:49.975Z,5.80
2019-03-24T22:39:33.002Z,5.70
2019-03-24T22:42:14.703Z,5.70
2019-03-24T22:44:56.614Z,5.70
2019-03-24T22:47:39.346Z,5.60
2019-03-24T22:50:22.170Z,5.60
2019-03-24T22:55:48.163Z,5.50
2019-03-24T22:58:31.745Z,5.60
2019-03-24T23:01:16.428Z,5.60
2019-03-24T23:04:01.422Z,5.50
2019-03-24T23:07:14.461Z,5.50
2019-03-24T23:09:46.899Z,5.50
2019-03-24T23:12:30.005Z,5.40
2019-03-24T23:15:12.116Z,5.40
2019-03-24T23:17:53.995Z,5.40
2019-03-24T23:20:36.645Z,5.30
2019-03-24T23:23:20.092Z,5.30
2019-03-24T23:26:03.446Z,5.20
2019-03-24T23:28:51.359Z,5.30
2019-03-24T23:31:34.243Z,5.30
2019-03-24T23:34:16.755Z,5.20
2019-03-24T23:36:59.045Z,5.20
2019-03-24T23:39:41.466Z,5.20
2019-03-24T23:42:23.703Z,5.20
2019-03-24T23:45:05.861Z,5.20
2019-03-24T23:47:47.986Z,5.20
2019-03-24T23:50:29.535Z,5.20
2019-03-24T23:53:11.672Z,5.20
2019-03-24T23:55:54.053Z,5.20
2019-03-24T23:58:40.685Z,5.20
